Weather History for Plattsmouth, NE

Change the Weather History Date:

Friday, November 4, 2011

  Actual Average (KOFF) Record (KOFF)
Temperature  
Mean Temperature 42 °F -  
Max Temperature 53 °F 52 °F 73 °F (2008)
Min Temperature 30 °F 34 °F 24 °F (1997)
Degree Days  
Heating Degree Days 24    
Moisture  
Dew Point 32 °F    
Average Humidity 72    
Maximum Humidity 93    
Minimum Humidity 44    
Precipitation  
Precipitation 0.00 in - - ()
Sea Level Pressure  
Sea Level Pressure 30.17 in    
Wind  
Wind Speed 6 mph (SE)    
Max Wind Speed 20 mph    
Max Gust Speed 24 mph    
Visibility 10 miles    
Events      
Averages and records for this station are not official NWS values.
T = Trace of Precipitation, MM = Missing Value Source: NWS Daily Summary

Daily Weather History Graph

Daily Weather History Graph

Search for Another Location

Airport:

Trip Planner

Search our weather history database for the weather conditions in past years. The results will help you decide how hot, cold, wet, or windy it might be!

Date:

Astronomy

Nov. 04, 2011 Rise Set
Actual Time 7:57 AM CDT 6:16 PM CDT
Civil Twilight 7:28 AM CDT 6:44 PM CDT
Nautical Twilight 6:56 AM CDT 7:17 PM CDT
Astronomical Twilight 6:24 AM CDT 7:49 PM CDT
Moon 3:10 PM CDT (11/4) 2:08 AM CDT (11/4)
Length of Visible Light 11h 16m
Length of Day
10h 18m
Waxing Gibbous, 69% of the Moon is Illuminated
Nov 4
Waxing Gibbous
Nov 10
Full
Nov 18
Last Quarter
Nov 25
New
Dec 2
First Quarter

Hourly Weather History & Observations

Time (CDT) Temp. Windchill Dew Point Humidity Pressure Visibility Wind Dir Wind Speed Gust Speed Precip Events Conditions
12:15 AM 35.6 °F - 28.4 °F 75% 30.26 in 10.0 mi Calm Calm - N/A   Clear
12:35 AM 35.6 °F 32.8 °F 30.2 °F 81% 30.25 in 10.0 mi ESE 3.5 mph - N/A   Clear
12:55 AM 33.8 °F 29.6 °F 30.2 °F 87% 30.26 in 10.0 mi ESE 4.6 mph - N/A   Clear
1:15 AM 33.8 °F 29.6 °F 30.2 °F 87% 30.25 in 10.0 mi ESE 4.6 mph - N/A   Clear
1:35 AM 33.8 °F 29.6 °F 30.2 °F 87% 30.25 in 10.0 mi SE 4.6 mph - N/A   Clear
1:55 AM 32.0 °F 27.5 °F 30.2 °F 93% 30.24 in 10.0 mi ESE 4.6 mph - N/A   Clear
2:15 AM 32.0 °F - 30.2 °F 93% 30.25 in 10.0 mi Calm Calm - N/A   Clear
2:35 AM 33.8 °F - 30.2 °F 87% 30.24 in 10.0 mi Calm Calm - N/A   Clear
2:55 AM 32.0 °F - 30.2 °F 93% 30.25 in 10.0 mi Calm Calm - N/A   Clear
3:15 AM 33.8 °F - 30.2 °F 87% 30.25 in 10.0 mi Calm Calm - N/A   Clear
3:35 AM 33.8 °F - 30.2 °F 87% 30.25 in 10.0 mi Calm Calm - N/A   Clear
3:55 AM 33.8 °F - 30.2 °F 87% 30.25 in 10.0 mi Calm Calm - N/A   Clear
4:15 AM 32.0 °F - 28.4 °F 87% 30.25 in 10.0 mi Calm Calm - N/A   Clear
4:35 AM 30.2 °F - 28.4 °F 93% 30.24 in 10.0 mi Calm Calm - N/A   Clear
4:55 AM 32.0 °F - 30.2 °F 93% 30.24 in 10.0 mi Calm Calm - N/A   Clear
5:15 AM 32.0 °F - 30.2 °F 93% 30.25 in 10.0 mi Calm Calm - N/A   Clear
5:35 AM 32.0 °F 26.4 °F 28.4 °F 87% 30.24 in 10.0 mi SE 5.8 mph - N/A   Clear
5:55 AM 30.2 °F 25.4 °F 28.4 °F 93% 30.24 in 10.0 mi SE 4.6 mph - N/A   Clear
6:55 AM 32.0 °F 26.4 °F 30.2 °F 93% 30.22 in 10.0 mi SE 5.8 mph - N/A   Clear
7:15 AM 32.0 °F 27.5 °F 30.2 °F 93% 30.22 in 7.0 mi SE 4.6 mph - N/A   Clear
7:35 AM 32.0 °F 25.6 °F 30.2 °F 93% 30.23 in 10.0 mi SE 6.9 mph - N/A   Clear
7:55 AM 32.0 °F 25.6 °F 30.2 °F 93% 30.23 in 10.0 mi SSE 6.9 mph - N/A   Clear
8:15 AM 32.0 °F 25.6 °F 30.2 °F 93% 30.23 in 10.0 mi SE 6.9 mph - N/A   Clear
8:35 AM 32.0 °F 25.6 °F 30.2 °F 93% 30.23 in 10.0 mi SE 6.9 mph - N/A   Clear
8:55 AM 32.0 °F 25.6 °F 30.2 °F 93% 30.23 in 10.0 mi SE 6.9 mph - N/A   Clear
9:15 AM 33.8 °F 27.7 °F 32.0 °F 93% 30.22 in 10.0 mi SE 6.9 mph - N/A   Clear
9:35 AM 35.6 °F 28.6 °F 32.0 °F 87% 30.23 in 10.0 mi SSE 9.2 mph - N/A   Clear
9:55 AM 37.4 °F 29.8 °F 32.0 °F 81% 30.23 in 10.0 mi SSE 11.5 mph 16.1 mph N/A   Clear
10:15 AM 39.2 °F 33.6 °F 32.0 °F 75% 30.24 in 10.0 mi SE 8.1 mph - N/A   Clear
10:35 AM 41.0 °F 35.2 °F 32.0 °F 70% 30.24 in 10.0 mi South 9.2 mph - N/A   Clear
10:55 AM 41.0 °F 33.9 °F 32.0 °F 70% 30.23 in 10.0 mi South 12.7 mph 16.1 mph N/A   Clear
11:15 AM 42.8 °F 36.6 °F 32.0 °F 66% 30.23 in 10.0 mi SSE 11.5 mph 18.4 mph N/A   Clear
11:35 AM 44.6 °F 39.7 °F 32.0 °F 61% 30.22 in 10.0 mi SSE 9.2 mph - N/A   Clear
11:55 AM 46.4 °F 41.5 °F 32.0 °F 57% 30.22 in 10.0 mi SE 10.4 mph - N/A   Clear
12:15 PM 46.4 °F 40.4 °F 32.0 °F 57% 30.21 in 10.0 mi SSE 13.8 mph 18.4 mph N/A   Clear
12:35 PM 48.2 °F - 32.0 °F 54% 30.21 in 10.0 mi SSE 9.2 mph - N/A   Clear
12:55 PM 50.0 °F - 33.8 °F 54% 30.19 in 10.0 mi SSE 8.1 mph - N/A   Clear
1:15 PM 51.8 °F - 33.8 °F 50% 30.17 in 10.0 mi SSE 12.7 mph 17.3 mph N/A   Clear
1:35 PM 51.8 °F - 33.8 °F 50% 30.16 in 10.0 mi SSE 8.1 mph 16.1 mph N/A   Clear
1:55 PM 51.8 °F - 33.8 °F 50% 30.14 in 10.0 mi SE 11.5 mph 16.1 mph N/A   Clear
2:35 PM 53.6 °F - 33.8 °F 47% 30.12 in 10.0 mi SE 16.1 mph 24.2 mph N/A   Clear
2:55 PM 53.6 °F - 33.8 °F 47% 30.11 in 10.0 mi SE 18.4 mph 23.0 mph N/A   Clear
3:15 PM 53.6 °F - 32.0 °F 44% 30.10 in 10.0 mi SE 16.1 mph 23.0 mph N/A   Clear
3:35 PM 53.6 °F - 32.0 °F 44% 30.09 in 10.0 mi SSE 19.6 mph 23.0 mph N/A   Clear
3:55 PM 53.6 °F - 32.0 °F 44% 30.09 in 10.0 mi SE 16.1 mph 20.7 mph N/A   Clear
4:35 PM 53.6 °F - 32.0 °F 44% 30.07 in 10.0 mi SSE 16.1 mph 20.7 mph N/A   Clear
4:55 PM 53.6 °F - 32.0 °F 44% 30.06 in 10.0 mi SSE 15.0 mph 24.2 mph N/A   Clear
5:15 PM 53.6 °F - 32.0 °F 44% 30.05 in 10.0 mi SE 15.0 mph 21.9 mph N/A   Clear
5:35 PM 51.8 °F - 32.0 °F 47% 30.05 in 10.0 mi SSE 9.2 mph 20.7 mph N/A   Clear
5:55 PM 51.8 °F - 32.0 °F 47% 30.05 in 10.0 mi SE 9.2 mph 17.3 mph N/A   Clear
6:15 PM 50.0 °F - 32.0 °F 50% 30.04 in 10.0 mi SE 8.1 mph - N/A   Clear
6:35 PM 48.2 °F - 32.0 °F 54% 30.04 in 10.0 mi SE 6.9 mph - N/A   Clear
7:15 PM 46.4 °F 42.9 °F 32.0 °F 57% 30.04 in 10.0 mi SE 6.9 mph - N/A   Clear
7:35 PM 44.6 °F 42.2 °F 32.0 °F 61% 30.05 in 10.0 mi SE 4.6 mph - N/A   Clear
7:55 PM 44.6 °F 40.2 °F 32.0 °F 61% 30.04 in 10.0 mi SE 8.1 mph - N/A   Clear
8:15 PM 44.6 °F 40.2 °F 33.8 °F 66% 30.04 in 10.0 mi SE 8.1 mph - N/A   Clear
8:35 PM 44.6 °F 40.2 °F 35.6 °F 71% 30.04 in 10.0 mi SE 8.1 mph - N/A   Clear
8:55 PM 44.6 °F 39.7 °F 35.6 °F 71% 30.03 in 10.0 mi SE 9.2 mph - N/A   Clear
9:15 PM 44.6 °F 40.7 °F 35.6 °F 71% 30.04 in 10.0 mi SE 6.9 mph - N/A   Clear
9:35 PM 44.6 °F 39.2 °F 35.6 °F 71% 30.04 in 10.0 mi SE 10.4 mph - N/A   Clear
9:55 PM 44.6 °F 38.8 °F 37.4 °F 76% 30.04 in 10.0 mi SE 11.5 mph 17.3 mph N/A   Clear
10:15 PM 44.6 °F 39.2 °F 37.4 °F 76% 30.04 in 10.0 mi SE 10.4 mph 17.3 mph N/A   Clear
10:35 PM 44.6 °F 39.2 °F 39.2 °F 81% 30.03 in 10.0 mi SE 10.4 mph - N/A   Clear
10:55 PM 44.6 °F 39.2 °F 39.2 °F 81% 30.03 in 10.0 mi SE 10.4 mph 17.3 mph N/A   Clear
11:15 PM 42.8 °F 37.0 °F 39.2 °F 87% 30.03 in 10.0 mi SE 10.4 mph 16.1 mph N/A   Clear
11:35 PM 42.8 °F 37.5 °F 39.2 °F 87% 30.02 in 10.0 mi SE 9.2 mph 17.3 mph N/A   Clear